Aérodrome :
LOGIN :

S'inscrire | Disclaimer

   EN    FR    IT 

 










Légende :    VFR   VFR Marginal   IFR   IFR Intensif   IFR Très Intensif
Visi : 
Plafond : 
>= 8 km
>= 3000ft
5 à 8 km
1000 à 3000 ft
1500m à 5 km
500 à 1000 ft
800 à 1500m
200 à 500 ft
< 800m
< 200 ft
Symboles :   Orages  Brouillard  Fortes neiges  Fortes précipitations  Vent > 20 kt
SIGMETs :   Divers  Orages  Givrage  Turbulence  Onde Orograph.  Cendres Volcan.







- Altitude de l'aérodrome : 433 ft
- Code IATA : CCF
- Voir les cartes d'approche


LFMK - Carcassonne

DERNIER METAR :
  • 161600Z AUTO 09006KT 060V130 7000 FEW068/// OVC082/// ///TCU 17/16 Q1017 TEMPO 3000 SHRA BR BKN004 BKN015TCU

METARs EXPIRÉS :
  • 161530Z AUTO 08007KT 6000 FEW062/// BKN074/// OVC086/// ///TCU 17/16 Q1017 TEMPO 3000 SHRA BR BKN004 BKN015TCU
  • 161500Z AUTO 08009KT 3200 -RA BR FEW013/// BKN062/// OVC072/// ///TCU 17/16 Q1017 TEMPO SHRA BKN004 BKN015TCU
  • 161430Z AUTO 07009KT 6000 -RA FEW008/// SCT028/// OVC058/// ///TCU 17/16 Q1017 TEMPO 3000 SHRA BR BKN004 BKN015TCU
  • 161400Z AUTO 08010KT 8000 BKN012/// BKN017/// BKN043/// ///CB 17/16 Q1017 TEMPO 1500 SHRA BR BKN003 BKN015TCU OVC050
  • 161330Z AUTO 08008KT 050V120 5000 -RA BR OVC012/// ///TCU 17/16 Q1017 TEMPO 1500 SHRA BR BKN003 BKN015TCU OVC050

TAF TAF LFMK
Valide du 16 à 15h jusqu'au 17 à 15h UTC


161400Z 1615/1715 08012KT 9999 BKN009 BKN014
TEMPO 1615/1619 3000 SHRA BR BKN004 BKN015TCU
BECMG 1621/1624 VRB02KT 2000 BR BKN015 BKN050
BECMG 1707/1709 28010KT 9999 SCT005 SCT030
Pas de NOTAMs connus pour ce terrain.



MET'MAP, la Météo Aéronautique d'un coup d'oeil ! - Copyright ORBIFLY Décembre 2007 - Disclaimer

ORBIFLY MET'MAP TEAM :

Programmation & Développement : Alexandra Zaïnal
Conception & Développement : Baudouin d'Aumeries
Co-Programmation & Développement : Marc-Olivier Méhu
Soutien technique & logistique : Manuel Goepfert

Contact : metmap@orbifly.com




SOURCES & CREDITS :

   NOAA